createdAt,value
2023-02-08T00:02:42.539Z,32.30
2023-02-08T00:05:50.407Z,32.30
2023-02-08T00:08:58.217Z,32.30
2023-02-08T00:12:08.026Z,32.30
2023-02-08T00:15:16.411Z,32.30
2023-02-08T00:18:24.371Z,32.40
2023-02-08T00:21:32.408Z,32.40
2023-02-08T00:24:40.723Z,32.40
2023-02-08T00:27:49.967Z,32.40
2023-02-08T00:30:58.132Z,32.40
2023-02-08T00:34:06.194Z,32.40
2023-02-08T00:37:14.439Z,32.40
2023-02-08T00:40:23.144Z,32.40
2023-02-08T00:43:32.732Z,32.30
2023-02-08T00:46:40.669Z,32.40
2023-02-08T00:49:48.960Z,32.30
2023-02-08T00:52:56.975Z,32.40
2023-02-08T00:56:07.155Z,32.40
2023-02-08T00:59:16.412Z,32.30
2023-02-08T01:02:26.520Z,32.30
2023-02-08T01:05:34.620Z,32.30
2023-02-08T01:08:42.663Z,32.60
2023-02-08T01:11:50.847Z,32.30
2023-02-08T01:15:00.271Z,32.30
2023-02-08T01:18:08.582Z,32.30
2023-02-08T01:21:21.536Z,32.30
2023-02-08T01:24:29.797Z,32.30
2023-02-08T01:27:38.226Z,32.30
2023-02-08T01:30:47.604Z,32.20
2023-02-08T01:33:55.770Z,32.20
2023-02-08T01:37:03.680Z,32.20
2023-02-08T01:40:12.972Z,32.20
2023-02-08T01:43:22.304Z,32.20
2023-02-08T01:46:31.614Z,32.20
2023-02-08T01:49:39.600Z,32.20
2023-02-08T01:52:47.654Z,32.20
2023-02-08T01:55:56.948Z,32.20
2023-02-08T01:59:06.236Z,32.20
2023-02-08T02:02:16.992Z,32.30
2023-02-08T02:05:26.323Z,32.30
2023-02-08T02:08:34.438Z,32.30
2023-02-08T02:11:42.450Z,32.30
2023-02-08T02:14:50.317Z,32.30
2023-02-08T02:17:59.954Z,32.30
2023-02-08T02:21:16.762Z,32.20
2023-02-08T02:24:38.931Z,32.30
2023-02-08T02:28:10.029Z,32.30
2023-02-08T02:31:36.989Z,32.90
2023-02-08T02:34:46.726Z,32.30
2023-02-08T02:37:58.308Z,32.30
2023-02-08T02:41:08.434Z,32.30
2023-02-08T02:44:18.444Z,32.30
2023-02-08T02:47:30.983Z,32.30
2023-02-08T02:50:41.843Z,32.30
2023-02-08T02:53:51.662Z,32.30
2023-02-08T02:57:02.381Z,32.30
2023-02-08T03:00:11.607Z,32.30
2023-02-08T03:03:23.104Z,32.30
2023-02-08T03:06:54.246Z,32.30
2023-02-08T03:10:06.648Z,32.30
2023-02-08T03:13:18.947Z,32.40
2023-02-08T03:16:30.375Z,32.40
2023-02-08T03:19:40.634Z,32.30
2023-02-08T03:22:52.802Z,32.40
2023-02-08T03:26:03.595Z,32.40
2023-02-08T03:29:15.251Z,32.40
2023-02-08T03:32:25.091Z,32.40
2023-02-08T03:35:35.009Z,32.40
2023-02-08T03:38:44.242Z,32.40
2023-02-08T03:41:53.773Z,32.40
2023-02-08T03:45:02.805Z,32.40
2023-02-08T03:48:10.928Z,32.40
2023-02-08T03:51:20.626Z,32.40
2023-02-08T03:54:29.316Z,32.40
2023-02-08T03:57:39.137Z,32.40
2023-02-08T04:00:49.820Z,32.40
2023-02-08T04:03:58.035Z,32.40
2023-02-08T04:07:07.605Z,32.40
2023-02-08T04:10:15.939Z,32.40
2023-02-08T04:13:23.765Z,32.30
2023-02-08T04:16:31.593Z,32.40
2023-02-08T04:19:39.782Z,32.40
2023-02-08T04:22:49.338Z,32.40
2023-02-08T04:25:57.840Z,32.30
2023-02-08T04:29:05.626Z,32.30
2023-02-08T04:32:13.714Z,32.30
2023-02-08T04:35:21.859Z,32.30
2023-02-08T04:38:31.248Z,32.30
2023-02-08T04:41:39.144Z,32.30
2023-02-08T04:44:47.162Z,32.30
2023-02-08T04:47:55.225Z,32.30
2023-02-08T04:51:03.183Z,32.30
2023-02-08T04:54:12.443Z,32.30
2023-02-08T04:57:20.403Z,32.30
2023-02-08T05:00:28.682Z,32.30
2023-02-08T05:03:36.904Z,32.20
2023-02-08T05:06:48.056Z,32.30
2023-02-08T05:09:57.690Z,32.30
2023-02-08T05:13:05.777Z,32.30
2023-02-08T05:16:13.929Z,32.30
2023-02-08T05:19:22.023Z,32.30
2023-02-08T05:22:30.138Z,32.30
2023-02-08T05:25:40.457Z,32.30
2023-02-08T05:28:48.475Z,32.30
2023-02-08T05:31:56.251Z,32.30
2023-02-08T05:35:04.192Z,32.30
2023-02-08T05:38:11.872Z,32.30
2023-02-08T05:41:21.286Z,32.30
2023-02-08T05:44:29.408Z,32.30
2023-02-08T05:47:37.875Z,32.30
2023-02-08T05:50:46.007Z,32.30
2023-02-08T05:53:55.911Z,32.30
2023-02-08T05:57:05.542Z,33.00
2023-02-08T06:00:14.541Z,32.30
2023-02-08T06:03:25.358Z,32.30
2023-02-08T06:06:33.022Z,32.30
2023-02-08T06:09:40.909Z,32.30
2023-02-08T06:12:50.107Z,32.30
2023-02-08T06:15:58.125Z,32.20
2023-02-08T06:19:06.194Z,32.30
2023-02-08T06:22:14.395Z,32.30
2023-02-08T06:25:22.530Z,32.30
2023-02-08T06:28:32.286Z,32.30
2023-02-08T06:31:40.303Z,32.30
2023-02-08T06:34:50.778Z,32.30
2023-02-08T06:37:59.709Z,32.30
2023-02-08T06:41:07.881Z,32.30
2023-02-08T06:44:17.408Z,32.30
2023-02-08T06:47:25.698Z,32.30
2023-02-08T06:50:33.709Z,32.40
2023-02-08T06:53:41.645Z,32.40
2023-02-08T06:56:49.669Z,32.40
2023-02-08T06:59:58.840Z,32.30
2023-02-08T07:03:06.998Z,32.30
2023-02-08T07:06:15.181Z,32.30
2023-02-08T07:09:23.095Z,32.30
2023-02-08T07:12:33.703Z,32.30
2023-02-08T07:15:43.160Z,32.30
2023-02-08T07:18:50.922Z,32.30
2023-02-08T07:22:03.042Z,32.30
2023-02-08T07:25:10.948Z,32.30
2023-02-08T07:28:18.998Z,32.30
2023-02-08T07:31:28.446Z,32.20
2023-02-08T07:34:37.497Z,32.30
2023-02-08T07:37:45.632Z,32.20
2023-02-08T07:40:53.813Z,32.20
2023-02-08T07:44:02.018Z,32.20
2023-02-08T07:47:11.194Z,32.20
2023-02-08T07:50:19.355Z,32.20
2023-02-08T07:53:27.609Z,32.20
2023-02-08T07:56:35.532Z,32.20
2023-02-08T07:59:43.559Z,32.20
2023-02-08T08:02:52.783Z,32.10
2023-02-08T08:06:00.571Z,32.10
2023-02-08T08:09:08.705Z,32.20
2023-02-08T08:12:16.775Z,32.10
2023-02-08T08:15:24.742Z,32.20
2023-02-08T08:18:34.110Z,32.10
2023-02-08T08:21:42.135Z,32.10
2023-02-08T08:24:49.934Z,32.10
2023-02-08T08:27:58.077Z,32.10
2023-02-08T08:31:11.135Z,32.20
2023-02-08T08:34:20.810Z,32.20
2023-02-08T08:37:28.970Z,32.20
2023-02-08T08:40:36.970Z,32.20
2023-02-08T08:43:45.001Z,32.20
2023-02-08T08:46:56.325Z,32.20
2023-02-08T08:50:06.202Z,32.20
2023-02-08T08:53:14.135Z,32.20
2023-02-08T08:56:22.150Z,32.20
2023-02-08T08:59:30.415Z,32.20
2023-02-08T09:02:38.312Z,32.20
2023-02-08T09:05:47.631Z,32.20
2023-02-08T09:08:55.685Z,32.20
2023-02-08T09:12:04.263Z,32.20
2023-02-08T09:15:12.737Z,32.20
2023-02-08T09:18:20.965Z,32.20
2023-02-08T09:21:30.299Z,32.30
2023-02-08T09:24:38.250Z,32.30
2023-02-08T09:27:46.155Z,32.30
2023-02-08T09:30:54.196Z,32.30
2023-02-08T09:34:02.398Z,32.30
2023-02-08T09:37:11.773Z,32.30
2023-02-08T09:40:23.263Z,32.30
2023-02-08T09:43:33.996Z,32.30
2023-02-08T09:46:44.298Z,32.40
2023-02-08T09:49:58.440Z,32.40
2023-02-08T09:53:11.770Z,32.40
2023-02-08T09:56:21.720Z,32.40
2023-02-08T09:59:30.638Z,32.40
2023-02-08T10:02:38.600Z,32.40
2023-02-08T10:05:46.657Z,32.40
2023-02-08T10:08:56.104Z,32.40
2023-02-08T10:12:11.235Z,32.50
2023-02-08T10:15:26.838Z,32.40
2023-02-08T10:18:39.963Z,32.40
2023-02-08T10:21:55.032Z,32.40
2023-02-08T10:25:13.018Z,32.50
2023-02-08T10:28:28.672Z,32.50
2023-02-08T10:31:46.077Z,32.50
2023-02-08T10:34:55.726Z,32.40
2023-02-08T10:38:06.034Z,32.40
2023-02-08T10:41:18.136Z,32.40
2023-02-08T10:44:29.324Z,32.30
2023-02-08T10:47:43.372Z,32.30
2023-02-08T10:50:51.326Z,32.30
2023-02-08T10:53:59.600Z,32.30
2023-02-08T10:57:13.054Z,32.30
2023-02-08T11:00:22.305Z,32.30
2023-02-08T11:03:30.750Z,32.30
2023-02-08T11:06:38.988Z,32.30
2023-02-08T11:09:46.888Z,32.30
2023-02-08T11:12:57.623Z,32.30
2023-02-08T11:16:06.623Z,32.30
2023-02-08T11:19:22.185Z,32.30
2023-02-08T11:22:31.590Z,32.30
2023-02-08T11:25:40.441Z,32.30
2023-02-08T11:29:01.794Z,32.30
2023-02-08T11:32:16.500Z,32.30
2023-02-08T11:35:25.546Z,32.30
2023-02-08T11:38:35.584Z,32.30
2023-02-08T11:41:44.738Z,32.30
2023-02-08T11:44:54.228Z,32.30
2023-02-08T11:48:02.233Z,32.30
2023-02-08T11:51:10.389Z,32.30
2023-02-08T11:54:33.809Z,32.30
2023-02-08T11:57:52.799Z,32.40
2023-02-08T12:01:03.932Z,32.40
2023-02-08T12:04:13.760Z,32.40
2023-02-08T12:07:22.742Z,32.40
2023-02-08T12:11:03.355Z,32.40
2023-02-08T12:14:22.547Z,32.40
2023-02-08T12:17:54.889Z,32.50
2023-02-08T12:21:04.649Z,32.50
2023-02-08T12:24:16.374Z,32.40
2023-02-08T12:27:32.104Z,32.50
2023-02-08T12:30:43.021Z,32.50
2023-02-08T12:33:57.420Z,32.50
2023-02-08T12:37:34.467Z,32.50
2023-02-08T12:40:52.620Z,32.50
2023-02-08T12:44:04.135Z,32.50
2023-02-08T12:47:21.326Z,32.50
2023-02-08T12:50:33.274Z,32.40
2023-02-08T12:53:42.514Z,32.40
2023-02-08T12:57:01.628Z,32.40
2023-02-08T13:00:18.374Z,32.40
2023-02-08T13:03:35.349Z,32.40
2023-02-08T13:06:45.947Z,32.40
2023-02-08T13:09:56.751Z,32.40
2023-02-08T13:13:09.747Z,32.40
2023-02-08T13:16:18.830Z,32.50
2023-02-08T13:19:29.252Z,32.40
2023-02-08T13:22:40.401Z,32.50
2023-02-08T13:25:48.043Z,32.40
2023-02-08T13:28:57.815Z,32.50
2023-02-08T13:32:09.697Z,32.40
2023-02-08T13:35:18.269Z,32.40
2023-02-08T13:38:29.619Z,32.50
2023-02-08T13:41:37.574Z,33.00
2023-02-08T13:44:45.916Z,32.50
2023-02-08T13:47:58.668Z,32.50
2023-02-08T13:51:08.022Z,32.50
2023-02-08T13:54:17.373Z,32.50
2023-02-08T13:57:52.684Z,32.50
2023-02-08T14:01:08.092Z,32.50
2023-02-08T14:04:36.302Z,32.50
2023-02-08T14:07:45.034Z,32.50
2023-02-08T14:11:04.756Z,32.50
2023-02-08T14:14:16.704Z,32.50
2023-02-08T14:17:25.274Z,32.50
2023-02-08T14:20:36.192Z,32.50
2023-02-08T14:23:43.977Z,32.40
2023-02-08T14:26:53.500Z,32.40
2023-02-08T14:30:03.071Z,32.40
2023-02-08T14:33:16.352Z,32.40
2023-02-08T14:36:30.169Z,32.40
2023-02-08T14:39:38.287Z,32.40
2023-02-08T14:42:57.523Z,32.40
2023-02-08T14:46:43.630Z,32.40
2023-02-08T14:49:52.459Z,32.40
2023-02-08T14:53:03.738Z,32.40
2023-02-08T14:56:17.276Z,32.40
2023-02-08T14:59:28.608Z,32.40
2023-02-08T15:02:46.345Z,32.40
2023-02-08T15:06:21.098Z,32.40
2023-02-08T15:09:30.013Z,32.40
2023-02-08T15:12:39.453Z,32.40
2023-02-08T15:15:51.021Z,32.40
2023-02-08T15:18:58.975Z,32.40
2023-02-08T15:22:25.889Z,32.40
2023-02-08T15:25:34.386Z,32.40
2023-02-08T15:28:45.062Z,32.40
2023-02-08T15:31:54.567Z,32.40
2023-02-08T15:35:03.138Z,32.40
2023-02-08T15:38:15.363Z,32.40
2023-02-08T15:41:27.569Z,32.40
2023-02-08T15:44:35.419Z,32.40
2023-02-08T15:47:44.708Z,32.40
2023-02-08T15:50:52.823Z,32.30
2023-02-08T15:54:00.834Z,32.30
2023-02-08T15:57:09.920Z,32.30
2023-02-08T16:00:19.290Z,32.30
2023-02-08T16:03:28.804Z,32.40
2023-02-08T16:06:39.569Z,32.30
2023-02-08T16:09:47.760Z,32.40
2023-02-08T16:12:57.248Z,32.40
2023-02-08T16:16:16.646Z,32.40
2023-02-08T16:19:27.723Z,32.40
2023-02-08T16:22:35.968Z,32.40
2023-02-08T16:25:45.308Z,32.40
2023-02-08T16:28:55.201Z,32.50
2023-02-08T16:32:12.624Z,32.40
2023-02-08T16:35:24.616Z,32.40
2023-02-08T16:38:34.377Z,32.40
2023-02-08T16:42:15.325Z,32.40
2023-02-08T16:45:24.357Z,32.40
2023-02-08T16:48:35.021Z,32.40
2023-02-08T16:51:45.179Z,32.40
2023-02-08T16:54:52.936Z,32.30
2023-02-08T16:58:01.124Z,32.40
2023-02-08T17:01:11.276Z,32.30
2023-02-08T17:04:19.355Z,32.30
2023-02-08T17:07:32.000Z,32.30
2023-02-08T17:10:40.024Z,32.30
2023-02-08T17:13:48.123Z,32.20
2023-02-08T17:16:56.175Z,32.20
2023-02-08T17:20:04.644Z,32.20
2023-02-08T17:23:15.375Z,32.20
2023-02-08T17:26:24.105Z,32.20
2023-02-08T17:29:32.132Z,32.10
2023-02-08T17:32:40.150Z,32.10
2023-02-08T17:35:49.292Z,32.10
2023-02-08T17:38:58.504Z,32.10
2023-02-08T17:42:06.233Z,32.10
2023-02-08T17:45:14.378Z,32.10
2023-02-08T17:48:22.319Z,32.10
2023-02-08T17:51:30.831Z,32.10
2023-02-08T17:54:40.329Z,32.10
2023-02-08T17:57:48.514Z,32.10
2023-02-08T18:00:56.620Z,32.10
2023-02-08T18:04:04.893Z,32.10
2023-02-08T18:07:13.071Z,32.10
2023-02-08T18:10:22.752Z,32.10
2023-02-08T18:13:30.554Z,32.10
2023-02-08T18:16:38.538Z,32.70
2023-02-08T18:19:46.485Z,32.10
2023-02-08T18:22:54.161Z,32.10
2023-02-08T18:26:07.803Z,32.10
2023-02-08T18:29:16.306Z,32.10
2023-02-08T18:32:24.380Z,32.10
2023-02-08T18:35:32.588Z,32.10
2023-02-08T18:38:40.747Z,32.10
2023-02-08T18:41:50.207Z,32.10
2023-02-08T18:44:58.251Z,32.10
2023-02-08T18:48:06.125Z,32.10
2023-02-08T18:51:16.188Z,32.10
2023-02-08T18:54:24.143Z,32.10
2023-02-08T18:57:33.580Z,32.10
2023-02-08T19:00:41.647Z,32.10
2023-02-08T19:03:49.562Z,32.10
2023-02-08T19:06:57.613Z,32.10
2023-02-08T19:10:06.121Z,32.10
2023-02-08T19:13:15.580Z,32.10
2023-02-08T19:16:24.562Z,32.10
2023-02-08T19:19:32.939Z,32.10
2023-02-08T19:22:41.073Z,32.10
2023-02-08T19:25:49.620Z,32.10
2023-02-08T19:29:00.008Z,32.70
2023-02-08T19:32:08.906Z,32.10
2023-02-08T19:35:16.685Z,32.00
2023-02-08T19:38:24.812Z,32.00
2023-02-08T19:41:34.113Z,32.10
2023-02-08T19:44:43.433Z,32.10
2023-02-08T19:47:52.015Z,32.00
2023-02-08T19:51:00.676Z,32.10
2023-02-08T19:54:10.286Z,32.10
2023-02-08T19:57:18.432Z,32.10
2023-02-08T20:00:27.601Z,32.10
2023-02-08T20:03:35.536Z,32.10
2023-02-08T20:06:44.901Z,32.10
2023-02-08T20:09:53.003Z,32.10
2023-02-08T20:13:00.842Z,32.10
2023-02-08T20:16:10.195Z,32.00
2023-02-08T20:19:18.311Z,32.00
2023-02-08T20:22:26.441Z,32.00
2023-02-08T20:25:34.837Z,32.00
2023-02-08T20:28:44.463Z,32.00
2023-02-08T20:31:55.637Z,32.00
2023-02-08T20:35:04.195Z,32.00
2023-02-08T20:38:12.087Z,32.00
2023-02-08T20:41:20.009Z,32.00
2023-02-08T20:44:28.464Z,31.90
2023-02-08T20:47:45.904Z,32.00
2023-02-08T20:50:54.228Z,32.50
2023-02-08T20:54:02.254Z,31.90
2023-02-08T20:57:13.586Z,31.90
2023-02-08T21:00:25.961Z,31.90
2023-02-08T21:03:39.908Z,31.90
2023-02-08T21:06:47.951Z,31.80
2023-02-08T21:09:56.071Z,31.80
2023-02-08T21:13:04.164Z,31.80
2023-02-08T21:16:12.380Z,31.80
2023-02-08T21:19:21.696Z,31.80
2023-02-08T21:22:29.832Z,31.80
2023-02-08T21:25:44.072Z,31.90
2023-02-08T21:28:53.727Z,31.80
2023-02-08T21:32:01.696Z,31.80
2023-02-08T21:35:10.983Z,31.80
2023-02-08T21:38:18.896Z,31.80
2023-02-08T21:41:28.474Z,31.80
2023-02-08T21:44:36.289Z,31.80
2023-02-08T21:47:44.570Z,31.80
2023-02-08T21:51:11.708Z,31.80
2023-02-08T21:54:38.301Z,31.80
2023-02-08T21:57:46.148Z,31.80
2023-02-08T22:00:54.144Z,31.80
2023-02-08T22:04:02.253Z,31.80
2023-02-08T22:07:11.654Z,31.80
2023-02-08T22:10:20.624Z,31.80
2023-02-08T22:13:28.898Z,31.80
2023-02-08T22:16:38.436Z,31.80
2023-02-08T22:19:46.601Z,31.80
2023-02-08T22:22:56.285Z,31.80
2023-02-08T22:26:08.372Z,31.80
2023-02-08T22:29:16.443Z,31.80
2023-02-08T22:32:24.517Z,31.80
2023-02-08T22:35:32.631Z,31.80
2023-02-08T22:38:42.027Z,31.80
2023-02-08T22:41:50.025Z,31.80
2023-02-08T22:44:58.059Z,31.80
2023-02-08T22:48:06.826Z,31.80
2023-02-08T22:51:16.960Z,31.80
2023-02-08T22:54:26.491Z,31.80
2023-02-08T22:57:35.336Z,31.80
2023-02-08T23:00:43.965Z,31.80
2023-02-08T23:03:51.826Z,31.80
2023-02-08T23:06:59.967Z,31.80
2023-02-08T23:10:10.979Z,31.80
2023-02-08T23:13:18.802Z,31.80
2023-02-08T23:16:26.804Z,31.80
2023-02-08T23:19:34.905Z,31.80
2023-02-08T23:22:43.957Z,32.40
2023-02-08T23:25:53.410Z,31.70
2023-02-08T23:29:01.604Z,31.80
2023-02-08T23:32:09.815Z,31.70
2023-02-08T23:35:17.830Z,31.80
2023-02-08T23:38:25.924Z,31.80
2023-02-08T23:41:35.442Z,31.80
2023-02-08T23:44:43.563Z,31.80
2023-02-08T23:47:51.704Z,31.80
2023-02-08T23:50:59.917Z,31.80
2023-02-08T23:54:07.966Z,31.70
2023-02-08T23:57:17.411Z,31.70
